Independent, Nebraska
Current Conditions -  °F | °C
As of 3:53 PM on Wednesday 28 Jan 2015 (Local Time) from KODX Reporting Station
Clear Clear  
Wind Chill: 18°   Ceiling: Unl
Heat Index: 18°   Visibility: 10mi
Dew Point: -2°   Wind: 21mph
Humidity: 26%   Direction: 320°NW
Pressure: 29.74"   Gusts: 32mph
Location:  41.4844°N, 98.8112°W
Report Text: KODX 282153Z AUTO 32018G28KT 10SM CLR 18/M02 A2974 RMK AO2 PK WND 32028/2148 SLP077 T01831017
Loading
Personal Weather Stations






























Interactive Weather Map New forecast layout! Learn more

10-Day Weather Forecast

Advertisements
Track Severe Weather on mobile